createdAt,value
2018-03-08T00:00:20.218Z,8.37
2018-03-08T00:02:49.511Z,8.33
2018-03-08T00:05:18.758Z,8.25
2018-03-08T00:07:48.245Z,8.23
2018-03-08T00:10:17.566Z,8.03
2018-03-08T00:12:46.918Z,7.91
2018-03-08T00:15:16.357Z,7.87
2018-03-08T00:17:45.857Z,7.98
2018-03-08T00:20:15.271Z,8.39
2018-03-08T00:22:44.391Z,8.40
2018-03-08T00:25:13.825Z,8.15
2018-03-08T00:27:43.329Z,8.07
2018-03-08T00:30:12.732Z,8.05
2018-03-08T00:32:42.195Z,8.02
2018-03-08T00:35:11.981Z,8.19
2018-03-08T00:37:41.574Z,8.38
2018-03-08T00:40:10.549Z,8.33
2018-03-08T00:42:40.062Z,8.41
2018-03-08T00:45:09.338Z,8.43
2018-03-08T00:47:38.657Z,8.49
2018-03-08T00:50:07.857Z,8.40
2018-03-08T00:52:37.083Z,8.38
2018-03-08T00:55:06.077Z,8.33
2018-03-08T00:57:35.453Z,8.37
2018-03-08T01:00:04.863Z,8.38
2018-03-08T01:02:34.512Z,8.43
2018-03-08T01:05:03.808Z,8.39
2018-03-08T01:07:33.022Z,8.38
2018-03-08T01:10:02.424Z,8.37
2018-03-08T01:12:31.869Z,8.36
2018-03-08T01:15:01.373Z,8.29
2018-03-08T01:17:30.854Z,8.28
2018-03-08T01:20:00.201Z,8.77
2018-03-08T01:22:29.843Z,8.30
2018-03-08T01:24:58.884Z,8.29
2018-03-08T01:27:28.156Z,8.19
2018-03-08T01:29:57.629Z,8.08
2018-03-08T01:32:26.809Z,8.22
2018-03-08T01:34:55.928Z,8.10
2018-03-08T01:37:25.095Z,8.07
2018-03-08T01:39:54.317Z,8.11
2018-03-08T01:42:23.625Z,8.08
2018-03-08T01:44:52.881Z,8.07
2018-03-08T01:47:22.284Z,8.04
2018-03-08T01:49:51.565Z,8.19
2018-03-08T01:52:21.114Z,8.25
2018-03-08T01:54:50.237Z,8.37
2018-03-08T01:57:19.755Z,8.55
2018-03-08T01:59:49.163Z,8.05
2018-03-08T02:02:18.508Z,7.80
2018-03-08T02:04:47.697Z,7.68
2018-03-08T02:07:17.036Z,7.58
2018-03-08T02:09:46.060Z,7.46
2018-03-08T02:12:16.567Z,7.50
2018-03-08T02:14:46.144Z,7.40
2018-03-08T02:17:15.429Z,7.37
2018-03-08T02:19:44.937Z,7.17
2018-03-08T02:22:13.961Z,7.05
2018-03-08T02:24:43.342Z,7.06
2018-03-08T02:27:12.529Z,7.41
2018-03-08T02:29:41.987Z,7.03
2018-03-08T02:32:11.304Z,6.95
2018-03-08T02:34:40.667Z,6.91
2018-03-08T02:37:10.044Z,6.88
2018-03-08T02:39:39.594Z,7.00
2018-03-08T02:42:08.658Z,6.90
2018-03-08T02:44:38.027Z,6.86
2018-03-08T02:47:07.349Z,6.81
2018-03-08T02:49:36.604Z,6.85
2018-03-08T02:52:05.898Z,7.01
2018-03-08T02:54:35.560Z,6.90
2018-03-08T02:57:04.962Z,7.03
2018-03-08T02:59:34.158Z,6.99
2018-03-08T03:02:03.581Z,7.05
2018-03-08T03:04:33.065Z,7.28
2018-03-08T03:07:02.630Z,7.37
2018-03-08T03:09:31.705Z,7.32
2018-03-08T03:12:00.984Z,7.25
2018-03-08T03:14:30.209Z,7.25
2018-03-08T03:17:00.054Z,7.34
2018-03-08T03:19:29.396Z,7.31
2018-03-08T03:21:58.741Z,7.38
2018-03-08T03:24:28.015Z,7.49
2018-03-08T03:26:57.285Z,7.52
2018-03-08T03:29:26.585Z,7.62
2018-03-08T03:31:55.879Z,7.71
2018-03-08T03:34:25.295Z,7.81
2018-03-08T03:36:54.665Z,7.80
2018-03-08T03:39:24.347Z,7.81
2018-03-08T03:41:53.722Z,7.73
2018-03-08T03:44:22.865Z,7.79
2018-03-08T03:46:51.933Z,7.72
2018-03-08T03:49:21.223Z,7.78
2018-03-08T03:51:50.534Z,7.67
2018-03-08T03:54:19.783Z,7.62
2018-03-08T03:56:49.025Z,7.64
2018-03-08T03:59:18.005Z,7.63
2018-03-08T04:01:47.278Z,7.42
2018-03-08T04:04:16.550Z,7.33
2018-03-08T04:06:45.788Z,7.37
2018-03-08T04:09:14.989Z,7.45
2018-03-08T04:11:44.506Z,7.50
2018-03-08T04:14:13.963Z,7.43
2018-03-08T04:16:43.077Z,7.39
2018-03-08T04:19:12.605Z,7.28
2018-03-08T04:21:41.981Z,7.22
2018-03-08T04:24:11.369Z,7.46
2018-03-08T04:26:40.729Z,7.39
2018-03-08T04:29:10.012Z,7.26
2018-03-08T04:31:39.630Z,7.27
2018-03-08T04:34:09.225Z,7.30
2018-03-08T04:36:38.525Z,7.25
2018-03-08T04:39:07.976Z,7.32
2018-03-08T04:41:37.537Z,7.38
2018-03-08T04:44:07.000Z,7.34
2018-03-08T04:46:36.117Z,7.51
2018-03-08T04:49:05.665Z,7.45
2018-03-08T04:51:35.089Z,7.48
2018-03-08T04:54:04.458Z,7.60
2018-03-08T04:56:33.907Z,7.62
2018-03-08T04:59:02.869Z,7.60
2018-03-08T05:01:31.821Z,7.74
2018-03-08T05:04:01.101Z,7.85
2018-03-08T05:06:30.502Z,8.07
2018-03-08T05:08:59.937Z,8.72
2018-03-08T05:11:29.054Z,8.29
2018-03-08T05:13:58.244Z,8.41
2018-03-08T05:16:27.841Z,8.30
2018-03-08T05:18:57.257Z,8.21
2018-03-08T05:21:26.673Z,8.21
2018-03-08T05:23:56.165Z,8.29
2018-03-08T05:26:25.401Z,8.39
2018-03-08T05:28:54.724Z,8.78
2018-03-08T05:31:24.383Z,8.68
2018-03-08T05:33:53.468Z,8.42
2018-03-08T05:36:22.729Z,8.27
2018-03-08T05:38:52.233Z,8.13
2018-03-08T05:41:21.418Z,8.24
2018-03-08T05:43:50.528Z,8.37
2018-03-08T05:46:19.931Z,8.34
2018-03-08T05:48:49.066Z,8.05
2018-03-08T05:51:18.086Z,7.91
2018-03-08T05:53:47.105Z,7.90
2018-03-08T05:56:16.253Z,7.81
2018-03-08T05:58:45.401Z,7.96
2018-03-08T06:01:21.176Z,7.82
2018-03-08T06:03:50.410Z,7.83
2018-03-08T06:06:19.995Z,7.84
2018-03-08T06:08:49.549Z,8.05
2018-03-08T06:11:19.021Z,8.17
2018-03-08T06:13:48.077Z,8.40
2018-03-08T06:16:17.362Z,8.17
2018-03-08T06:18:46.427Z,8.22
2018-03-08T06:21:15.614Z,8.12
2018-03-08T06:23:44.929Z,8.16
2018-03-08T06:26:14.284Z,8.11
2018-03-08T06:28:43.990Z,7.99
2018-03-08T06:31:13.605Z,8.53
2018-03-08T06:33:43.051Z,8.94
2018-03-08T06:36:12.576Z,9.32
2018-03-08T06:38:41.909Z,9.03
2018-03-08T06:41:11.045Z,9.04
2018-03-08T06:43:40.575Z,8.57
2018-03-08T06:46:10.232Z,8.49
2018-03-08T06:48:39.515Z,8.47
2018-03-08T06:51:08.655Z,8.48
2018-03-08T06:53:37.653Z,8.52
2018-03-08T06:56:07.068Z,8.55
2018-03-08T06:58:36.204Z,8.48
2018-03-08T07:01:05.473Z,8.48
2018-03-08T07:03:34.661Z,8.65
2018-03-08T07:06:03.776Z,8.82
2018-03-08T07:08:33.078Z,9.02
2018-03-08T07:11:02.152Z,9.34
2018-03-08T07:13:31.499Z,9.61
2018-03-08T07:16:00.945Z,9.46
2018-03-08T07:18:30.459Z,9.59
2018-03-08T07:20:59.909Z,9.94
2018-03-08T07:23:29.133Z,10.04
2018-03-08T07:25:58.356Z,10.55
2018-03-08T07:28:27.762Z,10.45
2018-03-08T07:30:58.100Z,10.83
2018-03-08T07:33:27.495Z,10.69
2018-03-08T07:35:56.890Z,10.68
2018-03-08T07:38:26.025Z,10.79
2018-03-08T07:40:55.647Z,11.19
2018-03-08T07:43:24.893Z,10.87
2018-03-08T07:45:54.047Z,11.18
2018-03-08T07:48:23.302Z,11.32
2018-03-08T07:50:52.636Z,11.92
2018-03-08T07:53:21.889Z,12.59
2018-03-08T07:55:51.338Z,12.94
2018-03-08T07:58:20.627Z,13.28
2018-03-08T08:00:50.010Z,13.29
2018-03-08T08:03:19.407Z,13.00
2018-03-08T08:05:59.982Z,13.90
2018-03-08T08:08:37.112Z,13.80
2018-03-08T08:11:06.366Z,13.70
2018-03-08T08:13:35.894Z,13.71
2018-03-08T08:16:05.275Z,13.64
2018-03-08T08:18:34.929Z,13.72
2018-03-08T08:21:04.249Z,13.77
2018-03-08T08:23:33.838Z,13.85
2018-03-08T08:26:03.117Z,13.60
2018-03-08T08:28:32.734Z,13.53
2018-03-08T08:31:02.039Z,13.68
2018-03-08T08:33:31.602Z,13.51
2018-03-08T08:36:01.164Z,13.70
2018-03-08T08:38:30.438Z,13.47
2018-03-08T08:40:59.697Z,13.58
2018-03-08T08:43:29.109Z,13.37
2018-03-08T08:45:58.409Z,13.42
2018-03-08T08:48:27.914Z,13.46
2018-03-08T08:50:57.268Z,12.86
2018-03-08T08:53:26.685Z,12.85
2018-03-08T08:55:55.931Z,12.74
2018-03-08T08:58:25.539Z,12.94
2018-03-08T09:00:54.501Z,12.79
2018-03-08T09:03:23.832Z,13.13
2018-03-08T09:05:53.121Z,13.12
2018-03-08T09:08:22.427Z,13.40
2018-03-08T09:10:51.842Z,13.14
2018-03-08T09:13:20.987Z,13.27
2018-03-08T09:15:50.069Z,12.92
2018-03-08T09:18:19.069Z,12.40
2018-03-08T09:20:48.590Z,13.12
2018-03-08T09:23:17.780Z,12.47
2018-03-08T09:25:47.151Z,12.49
2018-03-08T09:28:16.542Z,12.76
2018-03-08T09:30:46.030Z,12.65
2018-03-08T09:33:15.499Z,12.93
2018-03-08T09:35:44.633Z,13.27
2018-03-08T09:38:13.893Z,12.97
2018-03-08T09:40:43.796Z,13.05
2018-03-08T09:43:13.208Z,12.79
2018-03-08T09:45:42.563Z,12.29
2018-03-08T09:48:11.763Z,12.52
2018-03-08T09:50:41.629Z,12.49
2018-03-08T09:53:11.637Z,12.99
2018-03-08T09:55:41.571Z,12.95
2018-03-08T09:58:11.415Z,13.53
2018-03-08T10:00:40.931Z,13.18
2018-03-08T10:03:10.435Z,13.11
2018-03-08T10:05:39.718Z,12.59
2018-03-08T10:08:09.642Z,13.05
2018-03-08T10:10:38.851Z,12.99
2018-03-08T10:13:08.410Z,13.27
2018-03-08T10:15:37.857Z,12.70
2018-03-08T10:18:07.469Z,12.82
2018-03-08T10:20:36.718Z,12.60
2018-03-08T10:23:06.299Z,13.05
2018-03-08T10:25:35.464Z,12.69
2018-03-08T10:28:05.693Z,12.37
2018-03-08T10:30:35.342Z,12.56
2018-03-08T10:33:04.716Z,12.63
2018-03-08T10:35:34.364Z,12.44
2018-03-08T10:38:03.753Z,12.58
2018-03-08T10:43:02.300Z,12.86
2018-03-08T10:45:31.561Z,12.29
2018-03-08T10:48:00.713Z,12.90
2018-03-08T10:50:30.074Z,12.65
2018-03-08T10:52:59.453Z,12.07
2018-03-08T10:55:28.557Z,12.09
2018-03-08T10:57:57.822Z,12.36
2018-03-08T11:00:32.892Z,12.14
2018-03-08T11:03:06.980Z,12.14
2018-03-08T11:05:41.048Z,12.62
2018-03-08T11:08:10.685Z,12.27
2018-03-08T11:10:39.943Z,12.07
2018-03-08T11:13:09.425Z,12.21
2018-03-08T11:15:38.961Z,11.91
2018-03-08T11:18:08.101Z,11.97
2018-03-08T11:20:37.301Z,12.35
2018-03-08T11:23:06.543Z,12.01
2018-03-08T11:25:35.688Z,12.14
2018-03-08T11:28:05.107Z,12.77
2018-03-08T11:30:34.537Z,12.55
2018-03-08T11:33:04.311Z,12.06
2018-03-08T11:35:33.610Z,12.64
2018-03-08T11:38:02.879Z,13.16
2018-03-08T11:40:32.137Z,12.75
2018-03-08T11:43:01.515Z,12.59
2018-03-08T11:45:30.859Z,12.54
2018-03-08T11:48:00.018Z,12.82
2018-03-08T11:50:29.631Z,12.94
2018-03-08T11:52:59.025Z,12.56
2018-03-08T11:55:28.565Z,13.07
2018-03-08T11:57:57.685Z,13.40
2018-03-08T12:00:26.838Z,13.11
2018-03-08T12:02:56.078Z,12.85
2018-03-08T12:05:25.742Z,12.51
2018-03-08T12:07:54.739Z,12.86
2018-03-08T12:10:24.097Z,12.43
2018-03-08T12:12:53.472Z,12.65
2018-03-08T12:15:22.802Z,12.61
2018-03-08T12:17:52.644Z,12.74
2018-03-08T12:20:21.846Z,12.31
2018-03-08T12:22:51.189Z,13.08
2018-03-08T12:25:20.282Z,12.58
2018-03-08T12:27:49.679Z,12.99
2018-03-08T12:30:18.847Z,13.50
2018-03-08T12:32:48.332Z,13.28
2018-03-08T12:35:17.753Z,13.07
2018-03-08T12:37:47.226Z,13.23
2018-03-08T12:40:16.779Z,13.36
2018-03-08T12:42:45.965Z,13.19
2018-03-08T12:45:15.313Z,13.50
2018-03-08T12:47:44.925Z,12.51
2018-03-08T12:50:14.481Z,13.66
2018-03-08T12:52:44.013Z,13.03
2018-03-08T12:55:13.454Z,12.58
2018-03-08T12:57:42.606Z,12.71
2018-03-08T13:00:11.911Z,12.30
2018-03-08T13:02:41.303Z,11.97
2018-03-08T13:05:10.622Z,11.85
2018-03-08T13:07:39.809Z,12.55
2018-03-08T13:10:09.239Z,12.11
2018-03-08T13:12:38.502Z,12.44
2018-03-08T13:15:07.614Z,11.46
2018-03-08T13:17:36.950Z,11.42
2018-03-08T13:20:06.470Z,11.36
2018-03-08T13:22:35.854Z,11.48
2018-03-08T13:25:05.239Z,11.33
2018-03-08T13:27:34.732Z,11.94
2018-03-08T13:30:04.026Z,11.71
2018-03-08T13:32:33.242Z,11.63
2018-03-08T13:35:02.583Z,11.03
2018-03-08T13:37:31.917Z,11.41
2018-03-08T13:40:01.486Z,11.05
2018-03-08T13:42:31.359Z,11.17
2018-03-08T13:45:00.660Z,11.43
2018-03-08T13:47:30.053Z,11.08
2018-03-08T13:49:59.196Z,11.08
2018-03-08T13:52:28.669Z,11.25
2018-03-08T13:54:57.911Z,11.13
2018-03-08T13:57:27.149Z,11.57
2018-03-08T13:59:56.342Z,11.11
2018-03-08T14:02:26.257Z,10.69
2018-03-08T14:04:55.478Z,10.76
2018-03-08T14:07:24.762Z,10.78
2018-03-08T14:09:53.913Z,10.34
2018-03-08T14:12:23.419Z,10.77
2018-03-08T14:14:52.814Z,10.71
2018-03-08T14:17:22.374Z,10.47
2018-03-08T14:19:51.613Z,10.56
2018-03-08T14:22:20.868Z,10.77
2018-03-08T14:24:50.080Z,10.10
2018-03-08T14:27:19.530Z,10.16
2018-03-08T14:29:48.617Z,10.52
2018-03-08T14:32:18.135Z,10.19
2018-03-08T14:34:47.277Z,9.96
2018-03-08T14:37:16.353Z,9.95
2018-03-08T14:39:45.362Z,9.91
2018-03-08T14:42:15.044Z,10.16
2018-03-08T14:44:44.375Z,10.13
2018-03-08T14:47:13.572Z,9.99
2018-03-08T14:49:42.685Z,10.35
2018-03-08T14:52:11.886Z,10.26
2018-03-08T14:54:41.382Z,10.71
2018-03-08T14:57:11.681Z,10.28
2018-03-08T14:59:41.442Z,10.16
2018-03-08T15:02:11.074Z,10.62
2018-03-08T15:04:40.417Z,10.53
2018-03-08T15:07:09.708Z,10.29
2018-03-08T15:09:39.057Z,10.27
2018-03-08T15:12:08.649Z,10.09
2018-03-08T15:14:37.834Z,10.00
2018-03-08T15:17:07.487Z,10.36
2018-03-08T15:19:36.692Z,9.97
2018-03-08T15:22:06.198Z,9.62
2018-03-08T15:24:35.435Z,9.66
2018-03-08T15:27:04.799Z,9.68
2018-03-08T15:29:33.794Z,10.01
2018-03-08T15:32:03.077Z,10.16
2018-03-08T15:34:32.343Z,9.83
2018-03-08T15:37:01.637Z,9.25
2018-03-08T15:39:30.833Z,9.69
2018-03-08T15:42:00.351Z,9.22
2018-03-08T15:44:30.013Z,9.19
2018-03-08T15:46:59.259Z,8.99
2018-03-08T15:49:28.653Z,9.08
2018-03-08T15:51:57.913Z,8.94
2018-03-08T15:54:26.982Z,8.93
2018-03-08T15:56:56.203Z,8.93
2018-03-08T15:59:25.486Z,8.94
2018-03-08T16:01:54.566Z,8.94
2018-03-08T16:04:24.106Z,9.05
2018-03-08T16:10:29.467Z,8.86
2018-03-08T16:12:58.564Z,8.85
2018-03-08T16:15:27.605Z,8.87
2018-03-08T16:17:57.124Z,8.80
2018-03-08T16:20:26.309Z,8.77
2018-03-08T16:22:55.472Z,8.80
2018-03-08T16:25:24.776Z,8.78
2018-03-08T16:27:54.070Z,8.78
2018-03-08T16:30:23.245Z,8.80
2018-03-08T16:32:52.401Z,8.73
2018-03-08T16:35:21.661Z,8.78
2018-03-08T16:37:50.901Z,8.71
2018-03-08T16:40:19.997Z,8.76
2018-03-08T16:42:49.429Z,8.61
2018-03-08T16:45:18.490Z,8.66
2018-03-08T16:47:47.645Z,8.68
2018-03-08T16:50:17.011Z,8.70
2018-03-08T16:52:46.201Z,8.80
2018-03-08T16:55:15.302Z,8.79
2018-03-08T16:57:44.456Z,8.75
2018-03-08T17:00:13.889Z,8.77
2018-03-08T17:02:43.258Z,8.80
2018-03-08T17:05:12.580Z,8.73
2018-03-08T17:07:42.143Z,8.77
2018-03-08T17:10:11.155Z,8.76
2018-03-08T17:12:40.193Z,8.78
2018-03-08T17:15:09.493Z,8.93
2018-03-08T17:17:39.305Z,8.97
2018-03-08T17:20:08.640Z,9.00
2018-03-08T17:22:37.577Z,8.97
2018-03-08T17:25:06.825Z,9.05
2018-03-08T17:27:36.330Z,9.02
2018-03-08T17:30:05.405Z,8.96
2018-03-08T17:32:34.487Z,8.99
2018-03-08T17:35:03.491Z,8.96
2018-03-08T17:40:36.933Z,9.02
2018-03-08T17:43:06.507Z,8.95
2018-03-08T17:45:36.047Z,9.09
2018-03-08T17:48:05.418Z,9.06
2018-03-08T17:50:34.635Z,8.90
2018-03-08T17:53:03.897Z,8.90
2018-03-08T17:58:27.251Z,9.27
2018-03-08T18:00:56.237Z,9.36
2018-03-08T18:03:25.206Z,9.23
2018-03-08T18:05:54.813Z,8.84
2018-03-08T18:08:23.989Z,8.56
2018-03-08T18:10:53.204Z,8.42
2018-03-08T18:13:22.329Z,8.34
2018-03-08T18:15:51.775Z,8.41
2018-03-08T18:18:20.705Z,8.89
2018-03-08T18:20:50.004Z,8.44
2018-03-08T18:23:19.482Z,8.41
2018-03-08T18:25:48.484Z,8.32
2018-03-08T18:28:17.729Z,8.38
2018-03-08T18:30:46.953Z,8.34
2018-03-08T18:33:16.669Z,8.25
2018-03-08T18:35:46.053Z,8.26
2018-03-08T18:38:15.445Z,8.28
2018-03-08T18:40:44.543Z,8.19
2018-03-08T18:43:13.805Z,8.08
2018-03-08T18:45:43.041Z,8.15
2018-03-08T18:48:12.355Z,8.06
2018-03-08T18:50:41.643Z,8.18
2018-03-08T18:53:10.735Z,8.05
2018-03-08T18:55:39.997Z,7.94
2018-03-08T18:58:29.758Z,7.92
2018-03-08T19:00:58.885Z,8.10
2018-03-08T19:03:28.081Z,8.04
2018-03-08T19:05:57.568Z,8.20
2018-03-08T19:08:26.727Z,7.96
2018-03-08T19:10:56.197Z,8.20
2018-03-08T19:13:25.204Z,8.05
2018-03-08T19:15:54.448Z,8.41
2018-03-08T19:18:23.813Z,8.13
2018-03-08T19:20:53.310Z,8.01
2018-03-08T19:23:22.567Z,8.61
2018-03-08T19:25:51.809Z,8.41
2018-03-08T19:28:21.786Z,8.16
2018-03-08T19:30:51.026Z,8.05
2018-03-08T19:33:20.136Z,7.90
2018-03-08T19:35:49.374Z,7.84
2018-03-08T19:38:18.427Z,7.85
2018-03-08T19:40:47.821Z,7.74
2018-03-08T19:43:16.937Z,7.71
2018-03-08T19:45:46.085Z,7.71
2018-03-08T19:48:15.227Z,7.66
2018-03-08T19:50:44.398Z,7.72
2018-03-08T19:53:13.422Z,7.93
2018-03-08T19:55:42.809Z,8.07
2018-03-08T19:58:12.114Z,8.31
2018-03-08T20:00:41.082Z,8.31
2018-03-08T20:03:10.255Z,8.18
2018-03-08T20:05:39.569Z,7.96
2018-03-08T20:08:08.777Z,7.79
2018-03-08T20:10:37.954Z,8.07
2018-03-08T20:13:07.001Z,7.85
2018-03-08T20:15:36.309Z,7.89
2018-03-08T20:18:05.582Z,7.77
2018-03-08T20:20:34.697Z,7.74
2018-03-08T20:23:04.031Z,7.88
2018-03-08T20:25:33.329Z,8.02
2018-03-08T20:28:02.589Z,7.92
2018-03-08T20:30:32.197Z,7.80
2018-03-08T20:33:01.293Z,7.82
2018-03-08T20:35:30.637Z,7.74
2018-03-08T20:38:00.104Z,7.45
2018-03-08T20:40:29.615Z,7.38
2018-03-08T20:42:58.853Z,7.32
2018-03-08T20:45:28.305Z,7.21
2018-03-08T20:47:57.710Z,7.16
2018-03-08T20:50:27.948Z,7.21
2018-03-08T20:52:57.143Z,7.20
2018-03-08T20:55:26.279Z,7.15
2018-03-08T20:57:55.381Z,7.15
2018-03-08T21:00:24.524Z,7.17
2018-03-08T21:02:53.759Z,7.17
2018-03-08T21:05:22.861Z,7.11
2018-03-08T21:07:52.018Z,7.21
2018-03-08T21:10:21.046Z,7.08
2018-03-08T21:12:50.298Z,7.14
2018-03-08T21:15:19.775Z,7.36
2018-03-08T21:17:48.969Z,7.77
2018-03-08T21:20:18.243Z,8.15
2018-03-08T21:22:47.352Z,7.53
2018-03-08T21:25:16.681Z,7.26
2018-03-08T21:27:46.370Z,7.11
2018-03-08T21:30:15.613Z,7.06
2018-03-08T21:32:44.905Z,7.04
2018-03-08T21:35:14.159Z,6.93
2018-03-08T21:37:43.412Z,6.90
2018-03-08T21:40:12.623Z,7.00
2018-03-08T21:42:41.723Z,6.90
2018-03-08T21:45:10.919Z,6.81
2018-03-08T21:47:40.311Z,6.80
2018-03-08T21:50:09.761Z,6.78
2018-03-08T21:52:39.117Z,6.83
2018-03-08T21:55:08.621Z,6.85
2018-03-08T21:57:37.724Z,6.86
2018-03-08T22:00:07.031Z,6.89
2018-03-08T22:02:36.591Z,6.86
2018-03-08T22:05:05.835Z,6.85
2018-03-08T22:07:35.166Z,6.81
2018-03-08T22:10:04.325Z,6.84
2018-03-08T22:12:33.538Z,7.00
2018-03-08T22:15:02.825Z,7.37
2018-03-08T22:17:32.129Z,7.09
2018-03-08T22:20:01.373Z,6.89
2018-03-08T22:22:30.634Z,6.84
2018-03-08T22:24:59.823Z,6.84
2018-03-08T22:27:28.892Z,6.92
2018-03-08T22:29:58.097Z,7.03
2018-03-08T22:32:27.462Z,6.84
2018-03-08T22:34:56.635Z,6.87
2018-03-08T22:37:25.954Z,6.78
2018-03-08T22:39:55.117Z,6.67
2018-03-08T22:42:24.329Z,6.70
2018-03-08T22:44:53.613Z,6.67
2018-03-08T22:47:23.109Z,6.64
2018-03-08T22:49:52.375Z,6.59
2018-03-08T22:52:21.829Z,6.58
2018-03-08T22:54:51.402Z,6.52
2018-03-08T22:57:22.480Z,6.55
2018-03-08T22:59:52.039Z,6.50
2018-03-08T23:02:36.058Z,6.56
2018-03-08T23:05:05.586Z,6.52
2018-03-08T23:07:34.790Z,6.58
2018-03-08T23:10:03.990Z,6.57
2018-03-08T23:12:33.443Z,6.53
2018-03-08T23:15:02.865Z,6.58
2018-03-08T23:17:32.136Z,6.47
2018-03-08T23:20:01.287Z,6.51
2018-03-08T23:22:30.749Z,6.53
2018-03-08T23:25:00.102Z,6.56
2018-03-08T23:27:29.653Z,6.52
2018-03-08T23:29:58.930Z,6.62
2018-03-08T23:32:27.957Z,6.46
2018-03-08T23:34:57.199Z,6.40
2018-03-08T23:37:26.273Z,6.37
2018-03-08T23:39:55.745Z,6.38
2018-03-08T23:42:25.157Z,6.31
2018-03-08T23:44:54.398Z,6.32
2018-03-08T23:47:23.243Z,6.37
2018-03-08T23:49:52.679Z,6.34
2018-03-08T23:52:22.085Z,6.36
2018-03-08T23:54:51.485Z,6.40
2018-03-08T23:57:20.850Z,6.54
2018-03-08T23:59:50.098Z,6.74
